createdAt,value
2019-04-01T00:00:38.280Z,100.00
2019-04-01T00:03:05.387Z,100.00
2019-04-01T00:05:31.652Z,99.80
2019-04-01T00:07:57.874Z,99.46
2019-04-01T00:10:24.508Z,99.38
2019-04-01T00:12:50.687Z,98.87
2019-04-01T00:15:16.978Z,98.55
2019-04-01T00:17:43.750Z,98.35
2019-04-01T00:20:10.116Z,97.49
2019-04-01T00:22:36.258Z,97.12
2019-04-01T00:25:03.057Z,96.58
2019-04-01T00:27:29.239Z,96.79
2019-04-01T00:29:55.406Z,96.54
2019-04-01T00:32:22.007Z,96.64
2019-04-01T00:34:48.192Z,96.69
2019-04-01T00:37:14.523Z,96.57
2019-04-01T00:39:41.107Z,96.36
2019-04-01T00:42:18.241Z,95.90
2019-04-01T00:44:44.419Z,95.49
2019-04-01T00:47:10.672Z,95.01
2019-04-01T00:49:36.872Z,94.78
2019-04-01T00:52:03.139Z,94.38
2019-04-01T00:54:29.427Z,93.54
2019-04-01T00:56:55.595Z,93.02
2019-04-01T00:59:22.207Z,92.57
2019-04-01T01:01:48.477Z,92.17
2019-04-01T01:04:14.744Z,92.17
2019-04-01T01:06:41.276Z,92.15
2019-04-01T01:09:07.412Z,92.15
2019-04-01T01:11:34.428Z,92.09
2019-04-01T01:14:00.580Z,91.90
2019-04-01T01:16:27.891Z,91.62
2019-04-01T01:18:54.009Z,91.46
2019-04-01T01:21:20.287Z,91.37
2019-04-01T01:23:46.940Z,91.13
2019-04-01T01:26:13.091Z,91.33
2019-04-01T01:28:39.444Z,91.33
2019-04-01T01:31:06.083Z,91.06
2019-04-01T01:33:32.244Z,91.32
2019-04-01T01:35:58.386Z,90.98
2019-04-01T01:38:24.902Z,91.25
2019-04-01T01:40:51.058Z,91.29
2019-04-01T01:43:17.222Z,91.50
2019-04-01T01:45:43.793Z,91.43
2019-04-01T01:48:10.069Z,91.72
2019-04-01T01:50:36.503Z,91.85
2019-04-01T01:53:03.073Z,92.43
2019-04-01T01:55:29.288Z,92.18
2019-04-01T01:57:57.222Z,92.53
2019-04-01T02:00:26.600Z,92.53
2019-04-01T02:02:54.786Z,92.55
2019-04-01T02:05:23.197Z,92.55
2019-04-01T02:07:49.880Z,92.87
2019-04-01T02:10:16.063Z,92.80
2019-04-01T02:12:42.243Z,93.02
2019-04-01T02:15:08.950Z,93.03
2019-04-01T02:17:35.127Z,93.03
2019-04-01T02:20:01.283Z,93.09
2019-04-01T02:22:27.466Z,93.09
2019-04-01T02:24:53.712Z,93.43
2019-04-01T02:27:19.894Z,93.50
2019-04-01T02:29:46.487Z,93.55
2019-04-01T02:32:12.685Z,93.56
2019-04-01T02:34:38.866Z,93.65
2019-04-01T02:37:05.037Z,93.72
2019-04-01T02:39:31.609Z,93.70
2019-04-01T02:41:57.879Z,93.42
2019-04-01T02:44:24.064Z,93.73
2019-04-01T02:46:50.531Z,93.73
2019-04-01T02:49:16.772Z,93.98
2019-04-01T02:51:42.921Z,93.98
2019-04-01T02:54:09.107Z,94.25
2019-04-01T02:56:35.235Z,94.25
2019-04-01T02:59:01.694Z,94.14
2019-04-01T03:01:27.833Z,94.17
2019-04-01T03:03:54.394Z,94.20
2019-04-01T03:06:20.578Z,94.13
2019-04-01T03:08:46.739Z,94.03
2019-04-01T03:11:13.214Z,94.06
2019-04-01T03:13:39.411Z,94.14
2019-04-01T03:16:05.662Z,94.29
2019-04-01T03:18:32.271Z,94.46
2019-04-01T03:20:58.452Z,94.75
2019-04-01T03:23:24.747Z,94.75
2019-04-01T03:25:51.290Z,94.99
2019-04-01T03:28:17.450Z,95.37
2019-04-01T03:30:43.590Z,95.65
2019-04-01T03:33:09.869Z,95.81
2019-04-01T03:35:36.053Z,95.81
2019-04-01T03:38:02.306Z,96.07
2019-04-01T03:40:28.530Z,96.17
2019-04-01T03:42:55.750Z,96.32
2019-04-01T03:45:21.918Z,96.47
2019-04-01T03:47:48.329Z,96.79
2019-04-01T03:50:14.845Z,97.00
2019-04-01T03:52:41.203Z,97.26
2019-04-01T03:55:07.359Z,97.49
2019-04-01T03:57:34.113Z,97.62
2019-04-01T04:00:00.526Z,97.83
2019-04-01T04:02:26.932Z,97.88
2019-04-01T04:04:53.512Z,97.90
2019-04-01T04:07:19.667Z,97.91
2019-04-01T04:09:45.752Z,97.82
2019-04-01T04:12:12.351Z,97.86
2019-04-01T04:14:39.574Z,97.96
2019-04-01T04:17:05.713Z,98.02
2019-04-01T04:19:31.942Z,97.98
2019-04-01T04:21:58.102Z,98.14
2019-04-01T04:24:24.351Z,98.28
2019-04-01T04:26:50.780Z,98.22
2019-04-01T04:29:16.917Z,98.26
2019-04-01T04:31:43.092Z,98.20
2019-04-01T04:34:09.815Z,98.32
2019-04-01T04:36:36.420Z,98.35
2019-04-01T04:39:05.010Z,98.27
2019-04-01T04:41:31.779Z,98.14
2019-04-01T04:43:58.034Z,98.03
2019-04-01T04:46:24.353Z,98.01
2019-04-01T04:48:50.884Z,97.96
2019-04-01T04:51:17.090Z,97.97
2019-04-01T04:53:43.242Z,97.94
2019-04-01T04:56:09.930Z,97.87
2019-04-01T04:58:36.185Z,97.87
2019-04-01T05:01:02.425Z,98.40
2019-04-01T05:03:29.085Z,99.19
2019-04-01T05:05:55.367Z,99.64
2019-04-01T05:08:21.621Z,99.93
2019-04-01T05:10:48.250Z,100.00
2019-04-01T05:13:14.407Z,100.00
2019-04-01T05:15:40.776Z,100.00
2019-04-01T05:18:07.374Z,100.00
2019-04-01T05:20:34.317Z,100.00
2019-04-01T05:23:01.987Z,100.00
2019-04-01T05:25:31.860Z,100.00
2019-04-01T05:27:57.624Z,100.00
2019-04-01T05:30:23.962Z,100.00
2019-04-01T05:32:53.131Z,100.00
2019-04-01T05:35:19.528Z,100.00
2019-04-01T05:37:45.667Z,100.00
2019-04-01T05:40:12.424Z,100.00
2019-04-01T05:42:38.545Z,100.00
2019-04-01T05:45:05.822Z,100.00
2019-04-01T05:47:38.128Z,100.00
2019-04-01T05:50:05.216Z,100.00
2019-04-01T05:52:31.513Z,100.00
2019-04-01T05:54:58.066Z,100.00
2019-04-01T05:57:24.222Z,100.00
2019-04-01T05:59:50.357Z,100.00
2019-04-01T06:02:16.876Z,100.00
2019-04-01T06:04:43.026Z,100.00
2019-04-01T06:07:09.182Z,100.00
2019-04-01T06:09:35.995Z,100.00
2019-04-01T06:12:02.133Z,100.00
2019-04-01T06:14:28.447Z,100.00
2019-04-01T06:16:54.582Z,100.00
2019-04-01T06:19:20.835Z,100.00
2019-04-01T06:21:47.151Z,100.00
2019-04-01T06:24:13.715Z,100.00
2019-04-01T06:26:40.076Z,100.00
2019-04-01T06:29:06.343Z,100.00
2019-04-01T06:31:32.474Z,100.00
2019-04-01T06:33:58.643Z,100.00
2019-04-01T06:36:24.814Z,100.00
2019-04-01T06:38:51.264Z,100.00
2019-04-01T06:41:17.433Z,100.00
2019-04-01T06:43:43.893Z,100.00
2019-04-01T06:46:10.414Z,100.00
2019-04-01T06:48:36.580Z,100.00
2019-04-01T06:51:02.791Z,100.00
2019-04-01T06:53:29.414Z,100.00
2019-04-01T06:55:55.651Z,100.00
2019-04-01T06:58:21.834Z,99.24
2019-04-01T07:00:48.638Z,99.24
2019-04-01T07:03:18.356Z,98.24
2019-04-01T07:05:43.143Z,97.18
2019-04-01T07:08:09.710Z,97.18
2019-04-01T07:10:36.265Z,96.53
2019-04-01T07:13:02.445Z,96.53
2019-04-01T07:15:28.887Z,96.19
2019-04-01T07:17:55.033Z,94.47
2019-04-01T07:20:21.210Z,92.46
2019-04-01T07:22:47.962Z,91.08
2019-04-01T07:25:14.136Z,89.46
2019-04-01T07:27:40.669Z,87.12
2019-04-01T07:30:07.305Z,86.56
2019-04-01T07:32:33.476Z,85.92
2019-04-01T07:34:59.643Z,85.24
2019-04-01T07:37:25.797Z,84.35
2019-04-01T07:39:52.053Z,81.71
2019-04-01T07:42:18.284Z,80.69
2019-04-01T07:44:44.457Z,79.19
2019-04-01T07:47:10.748Z,76.67
2019-04-01T07:49:36.968Z,75.56
2019-04-01T07:52:03.391Z,75.42
2019-04-01T07:54:29.842Z,74.97
2019-04-01T07:56:56.034Z,74.62
2019-04-01T07:59:22.156Z,73.89
2019-04-01T08:01:48.285Z,74.16
2019-04-01T08:04:14.457Z,73.61
2019-04-01T08:06:40.748Z,72.57
2019-04-01T08:09:07.437Z,71.92
2019-04-01T08:11:33.860Z,70.21
2019-04-01T08:14:00.329Z,69.50
2019-04-01T08:16:26.481Z,69.18
2019-04-01T08:18:52.645Z,68.40
2019-04-01T08:21:18.802Z,68.06
2019-04-01T08:23:45.596Z,65.79
2019-04-01T08:26:11.743Z,65.36
2019-04-01T08:28:37.873Z,66.01
2019-04-01T08:31:04.764Z,64.12
2019-04-01T08:33:31.014Z,64.39
2019-04-01T08:35:57.180Z,63.87
2019-04-01T08:38:23.733Z,64.01
2019-04-01T08:40:49.870Z,63.41
2019-04-01T08:43:16.041Z,63.05
2019-04-01T08:45:42.589Z,62.01
2019-04-01T08:48:08.778Z,60.84
2019-04-01T08:50:35.137Z,58.77
2019-04-01T08:56:24.361Z,59.40
2019-04-01T08:58:50.509Z,58.81
2019-04-01T09:01:16.749Z,56.94
2019-04-01T09:03:43.248Z,55.51
2019-04-01T09:06:09.513Z,55.52
2019-04-01T09:08:35.920Z,54.82
2019-04-01T09:11:02.496Z,54.45
2019-04-01T09:13:28.871Z,54.12
2019-04-01T09:15:55.623Z,53.71
2019-04-01T09:18:22.195Z,53.69
2019-04-01T09:20:48.321Z,53.25
2019-04-01T09:23:14.415Z,52.49
2019-04-01T09:25:41.010Z,51.98
2019-04-01T09:28:07.464Z,51.00
2019-04-01T09:30:33.848Z,50.92
2019-04-01T09:33:00.098Z,50.26
2019-04-01T09:35:26.213Z,49.82
2019-04-01T09:37:52.363Z,49.96
2019-04-01T09:40:18.882Z,49.52
2019-04-01T09:42:45.067Z,48.92
2019-04-01T09:45:11.609Z,50.04
2019-04-01T09:47:37.793Z,50.32
2019-04-01T09:50:05.082Z,48.57
2019-04-01T09:52:31.701Z,48.04
2019-04-01T09:54:58.159Z,49.03
2019-04-01T09:57:24.456Z,49.22
2019-04-01T09:59:51.057Z,48.48
2019-04-01T10:02:31.289Z,48.05
2019-04-01T10:04:45.510Z,47.24
2019-04-01T10:07:11.704Z,47.17
2019-04-01T10:09:37.814Z,47.70
2019-04-01T10:12:04.090Z,46.99
2019-04-01T10:14:31.044Z,46.84
2019-04-01T10:16:57.278Z,46.81
2019-04-01T10:19:23.559Z,45.73
2019-04-01T10:21:50.106Z,46.19
2019-04-01T10:24:16.248Z,47.27
2019-04-01T10:26:42.709Z,45.87
2019-04-01T10:29:09.234Z,45.63
2019-04-01T10:31:35.360Z,46.21
2019-04-01T10:34:01.520Z,45.73
2019-04-01T10:36:27.927Z,45.09
2019-04-01T10:38:54.084Z,45.03
2019-04-01T10:41:20.275Z,44.79
2019-04-01T10:43:46.933Z,45.04
2019-04-01T10:46:13.195Z,44.25
2019-04-01T10:48:39.692Z,45.01
2019-04-01T10:51:06.339Z,45.03
2019-04-01T10:53:32.748Z,45.11
2019-04-01T10:55:59.009Z,44.04
2019-04-01T10:58:25.199Z,44.12
2019-04-01T11:00:51.583Z,43.20
2019-04-01T11:03:17.824Z,44.01
2019-04-01T11:05:44.776Z,43.76
2019-04-01T11:08:11.401Z,44.45
2019-04-01T11:10:37.631Z,43.93
2019-04-01T11:13:04.191Z,45.14
2019-04-01T11:15:30.356Z,45.86
2019-04-01T11:17:56.580Z,44.75
2019-04-01T11:20:22.827Z,44.26
2019-04-01T11:22:49.142Z,43.85
2019-04-01T11:25:15.691Z,43.30
2019-04-01T11:27:41.848Z,44.06
2019-04-01T11:30:08.549Z,43.73
2019-04-01T11:32:34.736Z,42.34
2019-04-01T11:35:00.901Z,41.60
2019-04-01T11:37:27.143Z,41.92
2019-04-01T11:39:53.806Z,42.15
2019-04-01T11:42:20.032Z,42.14
2019-04-01T11:44:46.242Z,41.95
2019-04-01T11:47:12.869Z,42.58
2019-04-01T11:49:39.007Z,42.25
2019-04-01T11:52:05.196Z,42.00
2019-04-01T11:54:31.694Z,42.70
2019-04-01T11:56:57.913Z,42.05
2019-04-01T11:59:24.274Z,41.77
2019-04-01T12:01:50.798Z,42.56
2019-04-01T12:04:16.958Z,42.19
2019-04-01T12:06:43.094Z,41.95
2019-04-01T12:09:09.761Z,41.67
2019-04-01T12:11:36.101Z,41.72
2019-04-01T12:14:05.108Z,42.24
2019-04-01T12:16:31.304Z,42.21
2019-04-01T12:18:57.434Z,42.39
2019-04-01T12:21:23.605Z,42.13
2019-04-01T12:23:49.736Z,41.62
2019-04-01T12:26:17.523Z,41.47
2019-04-01T12:28:43.988Z,41.64
2019-04-01T12:31:12.847Z,42.41
2019-04-01T12:33:38.972Z,41.76
2019-04-01T12:36:05.539Z,41.24
2019-04-01T12:38:31.761Z,41.74
2019-04-01T12:40:58.107Z,41.34
2019-04-01T12:43:24.235Z,40.85
2019-04-01T12:45:50.891Z,41.18
2019-04-01T12:48:17.061Z,42.06
2019-04-01T12:50:43.415Z,41.88
2019-04-01T12:53:09.987Z,41.46
2019-04-01T12:55:37.884Z,41.72
2019-04-01T12:58:04.278Z,40.96
2019-04-01T13:00:31.043Z,40.45
2019-04-01T13:02:57.206Z,40.56
2019-04-01T13:05:23.416Z,41.07
2019-04-01T13:07:52.333Z,41.71
2019-04-01T13:10:18.144Z,39.92
2019-04-01T13:12:46.309Z,40.88
2019-04-01T13:15:13.628Z,41.46
2019-04-01T13:17:40.274Z,41.01
2019-04-01T13:20:06.578Z,41.19
2019-04-01T13:22:33.346Z,40.66
2019-04-01T13:25:01.540Z,40.42
2019-04-01T13:27:30.823Z,40.43
2019-04-01T13:29:57.586Z,41.01
2019-04-01T13:32:23.752Z,40.51
2019-04-01T13:34:50.155Z,41.34
2019-04-01T13:37:18.289Z,42.57
2019-04-01T13:39:45.627Z,42.76
2019-04-01T13:42:12.831Z,43.77
2019-04-01T13:44:40.618Z,43.88
2019-04-01T13:47:07.070Z,43.67
2019-04-01T13:49:34.683Z,44.62
2019-04-01T13:52:03.667Z,45.15
2019-04-01T13:54:30.514Z,45.54
2019-04-01T13:56:57.088Z,45.89
2019-04-01T13:59:24.027Z,45.84
2019-04-01T14:01:50.346Z,46.17
2019-04-01T14:04:19.805Z,46.78
2019-04-01T14:06:47.171Z,45.78
2019-04-01T14:09:13.629Z,46.14
2019-04-01T14:11:43.397Z,46.37
2019-04-01T14:14:10.214Z,46.67
2019-04-01T14:16:44.072Z,46.97
2019-04-01T14:19:14.485Z,47.28
2019-04-01T14:21:43.978Z,47.17
2019-04-01T14:24:12.914Z,48.02
2019-04-01T14:26:41.097Z,47.56
2019-04-01T14:29:07.696Z,47.32
2019-04-01T14:31:34.656Z,48.04
2019-04-01T14:34:01.840Z,48.37
2019-04-01T14:36:29.955Z,48.18
2019-04-01T14:38:56.164Z,47.84
2019-04-01T14:41:26.538Z,47.58
2019-04-01T14:43:55.291Z,48.17
2019-04-01T14:46:22.090Z,48.80
2019-04-01T14:48:49.580Z,49.10
2019-04-01T14:51:18.401Z,48.97
2019-04-01T14:53:44.664Z,49.19
2019-04-01T14:56:11.343Z,49.11
2019-04-01T14:58:37.642Z,49.07
2019-04-01T15:01:04.043Z,48.96
2019-04-01T15:03:30.662Z,49.22
2019-04-01T15:05:57.046Z,49.47
2019-04-01T15:08:23.178Z,49.24
2019-04-01T15:10:49.781Z,49.88
2019-04-01T15:13:16.125Z,48.77
2019-04-01T15:15:43.046Z,49.09
2019-04-01T15:18:10.066Z,49.90
2019-04-01T15:20:36.865Z,49.31
2019-04-01T15:23:04.541Z,49.58
2019-04-01T15:25:30.941Z,49.93
2019-04-01T15:27:58.414Z,50.17
2019-04-01T15:30:27.868Z,50.40
2019-04-01T15:32:54.820Z,50.60
2019-04-01T15:35:21.175Z,50.83
2019-04-01T15:37:47.355Z,50.71
2019-04-01T15:40:13.778Z,50.86
2019-04-01T15:42:40.727Z,50.62
2019-04-01T15:45:08.376Z,50.58
2019-04-01T15:47:34.957Z,50.83
2019-04-01T15:50:09.917Z,51.08
2019-04-01T15:52:36.646Z,50.79
2019-04-01T15:55:05.154Z,50.62
2019-04-01T15:57:31.450Z,51.16
2019-04-01T16:00:00.027Z,51.07
2019-04-01T16:02:26.500Z,51.60
2019-04-01T16:04:52.937Z,51.15
2019-04-01T16:07:22.428Z,51.61
2019-04-01T16:09:47.711Z,51.31
2019-04-01T16:12:13.901Z,51.37
2019-04-01T16:14:40.241Z,51.10
2019-04-01T16:17:07.275Z,51.70
2019-04-01T16:19:34.044Z,51.85
2019-04-01T16:22:00.651Z,51.95
2019-04-01T16:24:27.635Z,52.45
2019-04-01T16:26:57.188Z,51.90
2019-04-01T16:29:23.335Z,51.08
2019-04-01T16:31:49.884Z,51.16
2019-04-01T16:34:16.007Z,50.63
2019-04-01T16:36:42.167Z,49.76
2019-04-01T16:39:09.900Z,49.07
2019-04-01T16:41:36.163Z,49.48
2019-04-01T16:44:02.537Z,49.35
2019-04-01T16:46:28.753Z,49.48
2019-04-01T16:48:54.986Z,50.15
2019-04-01T16:51:21.279Z,49.74
2019-04-01T16:53:48.161Z,49.85
2019-04-01T16:56:14.439Z,50.30
2019-04-01T16:58:40.644Z,50.53
2019-04-01T17:01:07.050Z,50.08
2019-04-01T17:03:33.259Z,50.26
2019-04-01T17:05:59.482Z,50.55
2019-04-01T17:08:25.814Z,50.52
2019-04-01T17:10:52.008Z,50.57
2019-04-01T17:13:18.939Z,50.54
2019-04-01T17:15:45.089Z,50.11
2019-04-01T17:18:11.310Z,50.37
2019-04-01T17:20:37.479Z,50.66
2019-04-01T17:23:03.690Z,50.62
2019-04-01T17:25:29.920Z,50.83
2019-04-01T17:27:56.429Z,51.02
2019-04-01T17:30:22.558Z,51.13
2019-04-01T17:32:48.915Z,51.54
2019-04-01T17:35:15.700Z,51.74
2019-04-01T17:37:41.851Z,51.97
2019-04-01T17:40:08.238Z,52.20
2019-04-01T17:42:34.924Z,52.34
2019-04-01T17:45:07.816Z,52.39
2019-04-01T17:47:35.215Z,52.58
2019-04-01T17:50:02.380Z,52.66
2019-04-01T17:52:29.800Z,53.29
2019-04-01T17:55:04.678Z,53.28
2019-04-01T17:57:31.074Z,53.68
2019-04-01T17:59:57.385Z,53.92
2019-04-01T18:02:24.438Z,54.12
2019-04-01T18:04:51.166Z,54.10
2019-04-01T18:07:17.468Z,54.01
2019-04-01T18:09:43.795Z,54.06
2019-04-01T18:12:10.639Z,54.34
2019-04-01T18:14:36.794Z,54.29
2019-04-01T18:17:02.958Z,54.16
2019-04-01T18:19:29.695Z,54.54
2019-04-01T18:21:56.063Z,54.66
2019-04-01T18:24:23.150Z,55.01
2019-04-01T18:26:49.595Z,55.32
2019-04-01T18:29:15.845Z,55.25
2019-04-01T18:31:41.962Z,55.46
2019-04-01T18:34:08.489Z,55.47
2019-04-01T18:36:35.028Z,55.73
2019-04-01T18:39:03.889Z,56.12
2019-04-01T18:41:29.505Z,56.48
2019-04-01T18:43:57.078Z,56.62
2019-04-01T18:46:23.837Z,56.64
2019-04-01T18:48:50.067Z,56.81
2019-04-01T18:51:16.352Z,57.05
2019-04-01T18:53:42.583Z,57.73
2019-04-01T18:56:09.036Z,58.04
2019-04-01T18:58:35.492Z,58.33
2019-04-01T19:01:04.371Z,58.65
2019-04-01T19:03:30.206Z,58.49
2019-04-01T19:05:59.840Z,58.30
2019-04-01T19:08:26.067Z,58.87
2019-04-01T19:11:02.101Z,59.35
2019-04-01T19:13:23.139Z,59.62
2019-04-01T19:15:50.602Z,59.87
2019-04-01T19:18:17.539Z,59.66
2019-04-01T19:20:55.644Z,60.12
2019-04-01T19:23:12.555Z,60.46
2019-04-01T19:25:38.803Z,59.90
2019-04-01T19:28:05.542Z,59.76
2019-04-01T19:30:32.747Z,60.00
2019-04-01T19:32:59.635Z,60.17
2019-04-01T19:35:27.011Z,61.20
2019-04-01T19:37:53.180Z,62.16
2019-04-01T19:40:22.971Z,62.61
2019-04-01T19:42:49.492Z,63.33
2019-04-01T19:45:15.849Z,64.01
2019-04-01T19:47:42.083Z,64.96
2019-04-01T19:50:08.842Z,65.81
2019-04-01T19:52:35.167Z,66.01
2019-04-01T19:55:03.182Z,65.94
2019-04-01T19:57:29.590Z,65.52
2019-04-01T19:59:55.962Z,66.44
2019-04-01T20:02:22.256Z,66.93
2019-04-01T20:04:48.406Z,67.26
2019-04-01T20:07:15.259Z,67.02
2019-04-01T20:09:42.634Z,66.94
2019-04-01T20:12:08.965Z,66.75
2019-04-01T20:14:35.251Z,66.75
2019-04-01T20:17:02.264Z,66.48
2019-04-01T20:19:28.842Z,66.38
2019-04-01T20:21:57.177Z,66.55
2019-04-01T20:24:23.931Z,66.68
2019-04-01T20:26:50.103Z,66.96
2019-04-01T20:29:16.468Z,67.54
2019-04-01T20:31:42.751Z,68.26
2019-04-01T20:34:19.078Z,68.37
2019-04-01T20:36:37.110Z,68.50
2019-04-01T20:39:06.278Z,68.63
2019-04-01T20:41:32.585Z,69.03
2019-04-01T20:43:58.758Z,69.54
2019-04-01T20:46:25.365Z,70.04
2019-04-01T20:48:51.526Z,70.45
2019-04-01T20:51:18.003Z,70.48
2019-04-01T20:53:44.562Z,70.40
2019-04-01T20:56:10.926Z,70.70
2019-04-01T20:58:37.254Z,70.88
2019-04-01T21:01:04.182Z,71.20
2019-04-01T21:03:30.692Z,71.17
2019-04-01T21:05:57.241Z,71.46
2019-04-01T21:08:24.050Z,71.85
2019-04-01T21:10:50.177Z,72.12
2019-04-01T21:13:16.657Z,72.18
2019-04-01T21:15:43.368Z,72.35
2019-04-01T21:18:09.937Z,72.67
2019-04-01T21:20:36.167Z,73.32
2019-04-01T21:23:02.346Z,73.72
2019-04-01T21:25:30.108Z,73.91
2019-04-01T21:27:56.478Z,74.00
2019-04-01T21:30:23.072Z,74.33
2019-04-01T21:32:49.376Z,74.69
2019-04-01T21:35:15.533Z,74.72
2019-04-01T21:37:42.046Z,74.96
2019-04-01T21:40:08.177Z,75.23
2019-04-01T21:42:34.741Z,75.41
2019-04-01T21:45:02.334Z,75.87
2019-04-01T21:47:28.573Z,76.42
2019-04-01T21:49:54.736Z,76.88
2019-04-01T21:52:20.984Z,76.82
2019-04-01T21:54:47.179Z,77.24
2019-04-01T21:57:13.374Z,77.85
2019-04-01T21:59:39.983Z,78.51
2019-04-01T22:02:06.559Z,78.68
2019-04-01T22:04:32.720Z,78.95
2019-04-01T22:06:59.524Z,79.13
2019-04-01T22:09:25.661Z,79.70
2019-04-01T22:11:51.837Z,79.90
2019-04-01T22:14:18.444Z,80.32
2019-04-01T22:16:44.630Z,80.48
2019-04-01T22:19:11.301Z,81.01
2019-04-01T22:21:39.441Z,81.23
2019-04-01T22:24:06.560Z,81.55
2019-04-01T22:26:32.703Z,81.35
2019-04-01T22:28:59.291Z,81.51
2019-04-01T22:31:25.477Z,81.36
2019-04-01T22:33:51.613Z,81.62
2019-04-01T22:36:30.233Z,81.77
2019-04-01T22:38:46.395Z,81.87
2019-04-01T22:41:12.656Z,82.18
2019-04-01T22:43:39.394Z,82.52
2019-04-01T22:46:05.685Z,83.02
2019-04-01T22:48:31.986Z,83.63
2019-04-01T22:50:58.519Z,83.67
2019-04-01T22:53:24.676Z,84.32
2019-04-01T22:55:50.853Z,84.78
2019-04-01T22:58:17.394Z,84.89
2019-04-01T23:00:43.672Z,84.80
2019-04-01T23:03:11.274Z,85.14
2019-04-01T23:05:37.910Z,85.36
2019-04-01T23:08:04.207Z,85.86
2019-04-01T23:10:30.467Z,86.12
2019-04-01T23:12:56.690Z,86.31
2019-04-01T23:15:22.930Z,86.42
2019-04-01T23:17:49.106Z,86.48
2019-04-01T23:20:15.653Z,86.92
2019-04-01T23:22:41.779Z,87.43
2019-04-01T23:25:08.002Z,88.06
2019-04-01T23:27:34.455Z,88.07
2019-04-01T23:30:00.756Z,88.32
2019-04-01T23:32:26.924Z,88.53
2019-04-01T23:34:53.594Z,88.77
2019-04-01T23:37:19.730Z,88.79
2019-04-01T23:39:45.901Z,88.79
2019-04-01T23:42:12.478Z,89.22
2019-04-01T23:44:38.619Z,89.18
2019-04-01T23:47:04.794Z,89.58
2019-04-01T23:49:31.216Z,89.84
2019-04-01T23:51:57.404Z,90.05
2019-04-01T23:54:23.544Z,90.18
2019-04-01T23:56:49.698Z,90.24
2019-04-01T23:59:15.876Z,90.57
